Time;durP1;ratioP1;P1;durP2;ratioP2;P2;SDS_P1;SDS_P2;PMS_P1;PMS_P2;Temp;Humidity;BMP_temperature;BMP_pressure;BME280_temperature;BME280_humidity;BME280_pressure;Samples;Min_cycle;Max_cycle;Signal;HPM_P1;HPM_P2
2020/12/03 00:01:00;;;;;;;38.08;18.98;;;4.30;99.90;;;;;;5010974;28;20037;-63
2020/12/03 00:03:27;;;;;;;44.85;21.08;;;4.30;99.90;;;;;;5010480;28;20101;-63
2020/12/03 00:05:54;;;;;;;41.33;20.65;;;4.40;99.90;;;;;;5010111;28;20040;-62
2020/12/03 00:08:21;;;;;;;46.63;21.40;;;4.30;99.90;;;;;;5008144;28;20036;-63
2020/12/03 00:10:47;;;;;;;43.25;21.05;;;4.40;99.90;;;;;;5010779;28;20026;-63
2020/12/03 00:13:18;;;;;;;43.72;20.80;;;4.40;99.90;;;;;;5010887;28;20026;-64
2020/12/03 00:15:44;;;;;;;46.20;19.55;;;4.40;99.90;;;;;;5010758;28;20026;-64
2020/12/03 00:18:09;;;;;;;45.92;21.50;;;4.40;99.90;;;;;;5010889;28;20754;-64
2020/12/03 00:20:36;;;;;;;39.70;19.33;;;4.40;99.90;;;;;;5010078;28;20030;-64
2020/12/03 00:23:03;;;;;;;39.70;19.65;;;4.40;99.90;;;;;;5011377;28;20014;-63
2020/12/03 00:25:29;;;;;;;42.92;20.90;;;4.30;99.90;;;;;;5010580;28;20406;-62
2020/12/03 00:27:56;;;;;;;39.90;20.27;;;4.30;99.90;;;;;;5010863;28;20030;-61
2020/12/03 00:30:22;;;;;;;38.38;19.63;;;4.40;99.90;;;;;;5010547;28;20033;-61
2020/12/03 00:32:50;;;;;;;38.25;19.95;;;4.40;99.90;;;;;;5010842;28;20496;-62
2020/12/03 00:35:17;;;;;;;36.00;17.80;;;4.40;99.90;;;;;;5008843;28;20113;-62
2020/12/03 00:37:42;;;;;;;38.97;19.95;;;4.40;99.90;;;;;;5010790;28;20694;-62
2020/12/03 00:40:08;;;;;;;40.05;19.50;;;4.40;99.90;;;;;;5010758;28;20038;-62
2020/12/03 00:42:34;;;;;;;36.15;18.42;;;4.40;99.90;;;;;;5010120;28;20022;-61
2020/12/03 00:44:59;;;;;;;41.25;21.77;;;4.40;99.90;;;;;;5010146;28;20037;-61
2020/12/03 00:47:25;;;;;;;35.88;19.00;;;4.50;99.90;;;;;;5010656;28;20040;-61
2020/12/03 00:49:50;;;;;;;38.05;19.52;;;4.50;99.90;;;;;;5009522;28;20105;-61
2020/12/03 00:52:16;;;;;;;36.88;19.92;;;4.50;99.90;;;;;;5010769;28;20030;-61
2020/12/03 00:54:42;;;;;;;37.22;18.35;;;4.50;99.90;;;;;;5009276;28;20088;-62
2020/12/03 00:57:08;;;;;;;40.72;18.50;;;4.50;99.90;;;;;;5010072;28;20477;-62
2020/12/03 00:59:37;;;;;;;35.20;17.73;;;4.50;99.90;;;;;;5008773;28;20030;-63
2020/12/03 01:02:06;;;;;;;31.15;17.17;;;4.50;99.90;;;;;;5010161;28;20034;-63
2020/12/03 01:04:31;;;;;;;32.95;17.08;;;4.50;99.90;;;;;;5009707;28;20030;-62
2020/12/03 01:06:57;;;;;;;34.17;18.27;;;4.50;99.90;;;;;;5009003;28;20045;-61
2020/12/03 01:09:22;;;;;;;34.40;18.63;;;4.50;99.90;;;;;;5010621;28;20034;-62
2020/12/03 01:11:48;;;;;;;31.63;18.25;;;4.50;99.90;;;;;;5009748;28;20540;-63
2020/12/03 01:14:13;;;;;;;35.67;17.60;;;4.50;99.90;;;;;;5010872;28;20079;-61
2020/12/03 01:16:39;;;;;;;36.05;18.23;;;4.50;99.90;;;;;;5009800;28;20057;-63
2020/12/03 01:19:04;;;;;;;32.58;17.05;;;4.50;99.90;;;;;;5014136;28;20025;-64
2020/12/03 01:21:30;;;;;;;38.92;18.73;;;4.50;99.90;;;;;;5010321;28;20425;-63
2020/12/03 01:23:55;;;;;;;37.78;20.17;;;4.50;99.90;;;;;;5017185;28;20030;-64
2020/12/03 01:26:21;;;;;;;33.50;17.52;;;4.50;99.90;;;;;;5001438;28;20045;-62
2020/12/03 01:28:48;;;;;;;40.25;18.83;;;4.50;99.90;;;;;;4998057;28;20097;-64
2020/12/03 01:31:13;;;;;;;33.75;18.35;;;4.50;99.90;;;;;;5010021;28;20674;-63
2020/12/03 01:33:40;;;;;;;34.78;18.88;;;4.50;99.90;;;;;;5009442;28;20037;-63
2020/12/03 01:36:06;;;;;;;36.47;18.00;;;4.50;99.90;;;;;;5008815;28;20029;-64
2020/12/03 01:38:32;;;;;;;38.22;20.38;;;4.50;99.90;;;;;;5009303;28;20100;-63
2020/12/03 01:40:57;;;;;;;33.35;18.08;;;4.50;99.90;;;;;;5008897;28;20033;-64
2020/12/03 01:43:23;;;;;;;36.72;18.83;;;4.50;99.90;;;;;;5009812;28;20080;-64
2020/12/03 01:45:57;;;;;;;33.67;17.20;;;4.50;99.90;;;;;;5008586;28;20477;-62
2020/12/03 01:48:37;;;;;;;33.88;17.73;;;4.60;99.90;;;;;;5009222;28;20507;-64
2020/12/03 01:51:07;;;;;;;31.73;17.45;;;4.50;99.90;;;;;;5009391;28;20037;-64
2020/12/03 01:53:32;;;;;;;39.85;19.48;;;4.50;99.90;;;;;;5009524;28;20026;-63
2020/12/03 01:56:05;;;;;;;32.08;17.35;;;4.40;99.90;;;;;;5008767;28;20068;-64
2020/12/03 01:58:41;;;;;;;35.42;18.38;;;4.40;99.90;;;;;;5009937;28;20038;-64
2020/12/03 02:01:09;;;;;;;38.00;18.88;;;4.40;99.90;;;;;;5008475;28;20030;-63
2020/12/03 02:03:42;;;;;;;33.63;17.95;;;4.40;99.90;;;;;;5009382;28;20429;-64
2020/12/03 02:06:08;;;;;;;34.70;18.63;;;4.50;99.90;;;;;;5006349;28;20449;-62
2020/12/03 02:08:33;;;;;;;36.00;18.33;;;4.40;99.90;;;;;;5009557;28;20359;-64
2020/12/03 02:10:59;;;;;;;34.67;17.40;;;4.40;99.90;;;;;;5008674;28;20040;-64
2020/12/03 02:13:24;;;;;;;37.85;19.05;;;4.50;99.90;;;;;;5010027;28;20452;-62
2020/12/03 02:15:50;;;;;;;38.72;18.63;;;4.50;99.90;;;;;;5008495;28;20687;-64
2020/12/03 02:18:15;;;;;;;39.33;20.10;;;4.50;99.90;;;;;;5008975;28;20042;-64
2020/12/03 02:20:41;;;;;;;38.67;19.05;;;4.50;99.90;;;;;;5008442;28;20050;-64
2020/12/03 02:23:12;;;;;;;35.85;19.08;;;4.50;99.90;;;;;;5009130;28;20044;-63
2020/12/03 02:25:37;;;;;;;35.78;17.98;;;4.50;99.90;;;;;;5008492;28;20030;-62
2020/12/03 02:28:04;;;;;;;38.05;19.02;;;4.50;99.90;;;;;;5008599;28;20096;-63
2020/12/03 02:30:29;;;;;;;35.22;18.98;;;4.50;99.90;;;;;;5008906;28;20022;-63
2020/12/03 02:32:55;;;;;;;39.38;20.20;;;4.50;99.90;;;;;;5008677;28;20029;-62
2020/12/03 02:35:20;;;;;;;38.45;20.25;;;4.50;99.90;;;;;;5008318;28;20077;-63
2020/12/03 02:37:46;;;;;;;40.00;20.98;;;4.50;99.90;;;;;;5008702;28;20026;-62
2020/12/03 02:40:12;;;;;;;41.58;20.40;;;4.50;99.90;;;;;;5008448;28;20018;-63
2020/12/03 02:42:37;;;;;;;39.90;19.48;;;4.50;99.90;;;;;;5009273;28;20034;-63
2020/12/03 02:45:04;;;;;;;36.13;19.48;;;4.50;99.90;;;;;;5007899;28;20022;-62
2020/12/03 02:47:29;;;;;;;37.67;18.95;;;4.50;99.90;;;;;;5008692;28;20034;-62
2020/12/03 02:49:55;;;;;;;39.20;21.08;;;4.50;99.90;;;;;;5008714;28;20531;-62
2020/12/03 02:52:24;;;;;;;34.70;19.42;;;4.50;99.90;;;;;;5008673;28;20109;-62
2020/12/03 02:54:50;;;;;;;42.17;20.23;;;4.60;99.90;;;;;;5007660;28;20034;-62
2020/12/03 02:57:17;;;;;;;35.55;19.15;;;4.60;99.90;;;;;;5009315;28;20108;-62
2020/12/03 02:59:43;;;;;;;37.47;18.48;;;4.60;99.90;;;;;;5008691;28;20034;-63
2020/12/03 03:02:08;;;;;;;35.38;19.13;;;4.60;99.90;;;;;;5008228;28;20040;-63
2020/12/03 03:04:34;;;;;;;36.65;19.73;;;4.50;99.90;;;;;;5008121;28;20026;-63
2020/12/03 03:07:00;;;;;;;40.13;18.75;;;4.60;99.90;;;;;;5008463;28;20085;-63
2020/12/03 03:09:25;;;;;;;36.72;19.17;;;4.60;99.90;;;;;;5008357;28;20105;-63
2020/12/03 03:11:51;;;;;;;36.92;19.20;;;4.50;99.90;;;;;;5008919;28;20026;-63
2020/12/03 03:14:17;;;;;;;37.63;18.30;;;4.60;99.90;;;;;;5011631;28;20122;-62
2020/12/03 03:16:43;;;;;;;35.33;18.23;;;4.60;99.90;;;;;;5007370;28;20432;-63
2020/12/03 03:19:09;;;;;;;34.35;18.67;;;4.60;99.90;;;;;;4992576;28;20096;-63
2020/12/03 03:21:34;;;;;;;41.30;17.95;;;4.60;99.90;;;;;;5006978;28;20030;-63
2020/12/03 03:24:00;;;;;;;32.47;17.23;;;4.60;99.90;;;;;;5011457;28;20034;-63
2020/12/03 03:26:27;;;;;;;37.53;17.90;;;4.60;99.90;;;;;;5010848;28;20081;-63
2020/12/03 03:28:52;;;;;;;32.75;16.60;;;4.60;99.90;;;;;;5012033;28;20076;-63
2020/12/03 03:31:19;;;;;;;31.60;17.27;;;4.60;99.90;;;;;;5011644;28;20029;-63
2020/12/03 03:33:45;;;;;;;33.72;16.90;;;4.70;99.90;;;;;;5011946;28;20053;-63
2020/12/03 03:36:11;;;;;;;34.08;16.88;;;4.60;99.90;;;;;;5010721;28;20489;-64
2020/12/03 03:38:37;;;;;;;27.45;14.88;;;4.60;99.90;;;;;;5010821;28;20065;-63
2020/12/03 03:41:03;;;;;;;29.67;15.52;;;4.60;99.90;;;;;;5007733;28;20073;-64
2020/12/03 03:43:29;;;;;;;28.20;14.43;;;4.60;99.90;;;;;;4992265;28;20085;-63
2020/12/03 03:45:54;;;;;;;29.60;15.23;;;4.60;99.90;;;;;;5002618;28;20041;-63
2020/12/03 03:48:21;;;;;;;26.10;13.70;;;4.60;99.90;;;;;;5011747;28;20046;-64
2020/12/03 03:50:47;;;;;;;28.40;14.77;;;4.60;99.90;;;;;;5011470;28;20042;-62
2020/12/03 03:53:12;;;;;;;26.88;13.05;;;4.70;99.90;;;;;;5011563;28;20935;-63
2020/12/03 03:55:38;;;;;;;27.80;14.45;;;4.70;99.90;;;;;;5010499;28;20037;-64
2020/12/03 03:58:07;;;;;;;26.52;13.65;;;4.60;99.90;;;;;;5010831;28;20160;-62
2020/12/03 04:00:44;;;;;;;31.27;14.98;;;4.70;99.90;;;;;;5010425;28;20026;-63
2020/12/03 04:03:13;;;;;;;23.73;12.52;;;4.70;99.90;;;;;;5011245;28;20025;-63
2020/12/03 04:05:44;;;;;;;27.35;12.82;;;4.70;99.90;;;;;;5009840;28;20640;-64
2020/12/03 04:08:10;;;;;;;30.38;12.38;;;4.70;99.90;;;;;;5010900;28;20382;-64
2020/12/03 04:10:35;;;;;;;24.25;12.30;;;4.70;99.90;;;;;;5010267;28;20022;-64
2020/12/03 04:13:01;;;;;;;24.75;13.60;;;4.80;99.90;;;;;;5042662;23;20047;-59
2020/12/03 04:15:27;;;;;;;23.30;12.27;;;4.80;99.90;;;;;;5035952;28;20406;-56
2020/12/03 04:17:53;;;;;;;25.90;12.45;;;4.80;99.90;;;;;;5050197;28;20061;-57
2020/12/03 04:20:18;;;;;;;26.10;12.20;;;4.80;99.90;;;;;;5049699;28;20079;-57
2020/12/03 04:22:44;;;;;;;23.27;11.48;;;4.80;99.90;;;;;;5049807;28;20096;-57
2020/12/03 04:25:11;;;;;;;21.48;11.50;;;4.80;99.90;;;;;;5048701;28;20044;-56
2020/12/03 04:27:36;;;;;;;22.20;11.40;;;4.80;99.90;;;;;;5049579;28;20451;-59
2020/12/03 04:30:08;;;;;;;23.17;11.52;;;4.80;99.90;;;;;;5042063;28;20312;-56
2020/12/03 04:32:33;;;;;;;22.85;12.98;;;4.80;99.90;;;;;;5030374;28;20060;-55
2020/12/03 04:34:59;;;;;;;30.48;11.90;;;4.90;99.90;;;;;;5036562;28;20072;-58
2020/12/03 04:37:25;;;;;;;20.23;11.50;;;4.90;99.90;;;;;;5048449;28;20711;-57
2020/12/03 04:39:51;;;;;;;29.00;10.75;;;4.90;99.90;;;;;;5048202;28;20025;-56
2020/12/03 04:42:25;;;;;;;23.55;11.23;;;4.90;99.90;;;;;;5048046;28;20078;-57
2020/12/03 04:44:54;;;;;;;20.77;10.32;;;4.90;99.90;;;;;;5047637;28;20020;-58
2020/12/03 04:47:41;;;;;;;19.20;9.20;;;4.90;99.90;;;;;;5043433;28;20420;-56
2020/12/03 04:50:32;;;;;;;17.63;9.95;;;4.80;99.90;;;;;;5031731;28;20491;-58
2020/12/03 04:53:34;;;;;;;16.02;9.20;;;4.80;99.90;;;;;;5029606;28;20033;-57
2020/12/03 04:56:09;;;;;;;15.32;9.60;;;4.80;99.90;;;;;;5039185;28;20513;-58
2020/12/03 04:59:15;;;;;;;14.50;8.38;;;4.80;99.90;;;;;;5049678;28;20036;-59
2020/12/03 05:02:17;;;;;;;17.13;8.88;;;4.80;99.90;;;;;;5008033;28;20029;-58
2020/12/03 05:05:07;;;;;;;19.00;9.63;;;4.90;99.90;;;;;;5048293;28;20031;-59
2020/12/03 05:07:33;;;;;;;18.40;10.05;;;4.80;99.90;;;;;;5048961;28;20028;-59
2020/12/03 05:10:16;;;;;;;18.50;9.68;;;4.80;99.90;;;;;;5049071;28;20021;-59
2020/12/03 05:12:43;;;;;;;17.67;9.77;;;4.80;99.90;;;;;;5031571;28;20396;-56
2020/12/03 05:15:21;;;;;;;17.30;9.63;;;4.90;99.90;;;;;;5031832;28;20048;-59
2020/12/03 05:18:14;;;;;;;19.98;9.93;;;4.90;99.90;;;;;;5048886;28;20025;-58
2020/12/03 05:20:51;;;;;;;19.10;10.20;;;4.90;99.90;;;;;;5048187;28;20025;-55
2020/12/03 05:23:20;;;;;;;20.42;10.95;;;4.90;99.90;;;;;;5048693;28;20036;-55
2020/12/03 05:25:48;;;;;;;20.65;11.27;;;4.90;99.90;;;;;;5044647;28;20151;-54
2020/12/03 05:28:38;;;;;;;16.90;9.40;;;4.90;99.90;;;;;;5048870;28;20542;-56
2020/12/03 05:31:17;;;;;;;19.20;10.65;;;4.80;99.90;;;;;;5031473;28;20018;-57
2020/12/03 05:33:44;;;;;;;22.60;11.20;;;4.80;99.90;;;;;;5028225;28;20027;-57
2020/12/03 05:36:25;;;;;;;22.92;11.65;;;4.80;99.90;;;;;;5029661;28;20392;-57
2020/12/03 05:38:51;;;;;;;27.83;12.05;;;4.80;99.90;;;;;;5044358;28;20086;-56
2020/12/03 05:41:18;;;;;;;20.23;11.85;;;4.70;99.90;;;;;;5048171;28;20021;-56
2020/12/03 05:43:44;;;;;;;25.45;11.73;;;4.70;99.90;;;;;;5028565;28;20050;-57
2020/12/03 05:46:13;;;;;;;23.73;11.70;;;4.70;99.90;;;;;;5029474;28;20061;-55
2020/12/03 05:48:39;;;;;;;21.80;11.48;;;4.70;99.90;;;;;;5028174;28;20611;-59
2020/12/03 05:51:23;;;;;;;23.80;12.10;;;4.70;99.90;;;;;;5041263;28;20107;-60
2020/12/03 05:54:15;;;;;;;25.03;12.00;;;4.70;99.90;;;;;;5048203;28;20068;-54
2020/12/03 05:56:50;;;;;;;24.58;11.90;;;4.70;99.90;;;;;;5036278;28;20176;-55
2020/12/03 05:59:20;;;;;;;20.63;10.88;;;4.60;99.90;;;;;;5034276;28;20033;-58
2020/12/03 06:02:25;;;;;;;27.73;12.43;;;4.60;99.90;;;;;;5034465;28;20025;-53
2020/12/03 06:05:11;;;;;;;25.38;12.80;;;4.60;99.90;;;;;;5039434;28;20033;-56
2020/12/03 06:08:04;;;;;;;26.60;12.32;;;4.60;99.90;;;;;;5036682;28;20559;-58
2020/12/03 06:10:45;;;;;;;21.33;11.07;;;4.60;99.90;;;;;;5040557;28;20018;-59
2020/12/03 06:13:34;;;;;;;23.90;12.23;;;4.70;99.90;;;;;;5037393;28;20462;-58
2020/12/03 06:16:13;;;;;;;21.92;11.60;;;4.70;99.90;;;;;;5039335;28;20160;-59
2020/12/03 06:18:57;;;;;;;21.38;11.23;;;4.70;99.90;;;;;;5045119;28;20021;-57
2020/12/03 06:21:45;;;;;;;23.45;12.70;;;4.80;99.90;;;;;;5038054;28;20363;-57
2020/12/03 06:24:27;;;;;;;26.98;13.48;;;4.80;99.90;;;;;;5043869;28;20112;-56
2020/12/03 06:27:54;;;;;;;26.45;12.57;;;4.80;99.90;;;;;;5039468;28;20033;-57
2020/12/03 06:30:35;;;;;;;32.95;14.18;;;4.80;99.90;;;;;;5004350;28;20076;-56
2020/12/03 06:33:31;;;;;;;27.05;14.52;;;4.80;99.90;;;;;;5004579;28;20030;-57
2020/12/03 06:36:06;;;;;;;26.77;13.23;;;4.70;99.90;;;;;;5037771;28;20076;-57
2020/12/03 06:38:50;;;;;;;;;;;4.60;99.90;;;;;;5049232;28;20031;-58
2020/12/03 06:41:44;;;;;;;29.20;13.30;;;4.60;99.90;;;;;;5047271;28;19916;-57
2020/12/03 06:44:22;;;;;;;20.08;10.02;;;4.70;99.90;;;;;;5040689;28;20174;-57
2020/12/03 06:47:11;;;;;;;25.92;13.93;;;4.60;99.90;;;;;;5047315;28;20041;-54
2020/12/03 06:49:58;;;;;;;27.48;13.43;;;4.70;99.90;;;;;;5052065;28;20036;-57
2020/12/03 06:52:32;;;;;;;29.00;14.88;;;4.70;99.90;;;;;;5032018;28;20496;-56
2020/12/03 06:55:40;;;;;;;26.65;14.02;;;4.70;99.90;;;;;;5034037;28;20056;-58
2020/12/03 06:58:37;;;;;;;24.63;13.20;;;4.70;99.90;;;;;;5051692;28;20033;-59
2020/12/03 07:01:24;;;;;;;29.95;14.48;;;4.70;99.90;;;;;;5051531;28;20021;-58
2020/12/03 07:04:08;;;;;;;27.27;13.68;;;4.70;99.90;;;;;;5050799;28;20025;-58
2020/12/03 07:06:50;;;;;;;28.43;14.37;;;4.70;99.90;;;;;;5044702;28;20422;-58
2020/12/03 07:09:45;;;;;;;28.73;14.68;;;4.70;99.90;;;;;;5051334;28;20025;-59
2020/12/03 07:12:27;;;;;;;29.38;13.75;;;4.70;99.90;;;;;;5051302;28;20052;-58
2020/12/03 07:15:21;;;;;;;28.92;14.40;;;4.70;99.90;;;;;;5050713;28;20035;-58
2020/12/03 07:18:21;;;;;;;24.33;12.88;;;4.70;99.90;;;;;;5031234;28;20045;-60
2020/12/03 07:21:18;;;;;;;30.45;13.95;;;4.60;99.90;;;;;;5042869;28;20029;-58
2020/12/03 07:24:02;;;;;;;26.20;14.00;;;4.60;99.90;;;;;;5029840;28;20043;-59
2020/12/03 07:27:04;;;;;;;26.42;13.60;;;4.70;99.90;;;;;;5030822;28;20041;-58
2020/12/03 07:29:51;;;;;;;29.35;14.70;;;4.70;99.90;;;;;;5031705;28;20390;-58
2020/12/03 07:32:41;;;;;;;26.08;13.93;;;4.70;99.90;;;;;;5034555;28;20029;-54
2020/12/03 07:35:58;;;;;;;27.60;13.52;;;4.60;99.90;;;;;;5043795;28;20017;-60
2020/12/03 07:38:38;;;;;;;27.33;12.95;;;4.60;99.90;;;;;;4986590;28;20042;-58
2020/12/03 07:41:05;;;;;;;26.33;13.93;;;4.60;99.90;;;;;;5036219;28;20041;-58
2020/12/03 07:43:38;;;;;;;26.10;13.32;;;4.60;99.90;;;;;;5051023;28;20380;-59
2020/12/03 07:46:28;;;;;;;26.95;13.70;;;4.60;99.90;;;;;;5035731;28;20112;-58
2020/12/03 07:48:55;;;;;;;29.80;14.40;;;4.70;99.90;;;;;;5050720;28;20029;-57
2020/12/03 07:51:21;;;;;;;29.02;13.82;;;4.70;99.90;;;;;;5043355;28;20033;-59
2020/12/03 07:54:16;;;;;;;29.90;14.65;;;4.70;99.90;;;;;;5030546;28;20443;-58
2020/12/03 07:56:44;;;;;;;30.25;14.48;;;4.60;99.90;;;;;;5040573;28;20056;-57
2020/12/03 07:59:29;;;;;;;28.38;14.60;;;4.60;99.90;;;;;;5049627;28;20033;-56
2020/12/03 08:01:58;;;;;;;;;;;4.60;99.90;;;;;;5038726;28;20507;-59
2020/12/03 08:04:33;;;;;;;27.20;13.55;;;4.70;99.90;;;;;;5030636;28;19992;-59
2020/12/03 08:07:04;;;;;;;28.23;13.13;;;4.70;99.90;;;;;;5040925;28;20537;-56
2020/12/03 08:09:37;;;;;;;26.77;12.15;;;4.60;99.90;;;;;;5042608;28;20053;-57
2020/12/03 08:12:04;;;;;;;23.65;12.77;;;4.70;99.90;;;;;;5041116;28;20116;-61
2020/12/03 08:14:36;;;;;;;27.77;13.15;;;4.70;99.90;;;;;;5045248;28;20105;-61
2020/12/03 08:17:05;;;;;;;29.60;14.18;;;4.60;99.90;;;;;;5029777;28;20026;-60
2020/12/03 08:19:34;;;;;;;27.38;13.20;;;4.60;99.90;;;;;;5036905;28;20021;-59
2020/12/03 08:21:59;;;;;;;28.52;12.85;;;4.60;99.90;;;;;;5049762;28;20328;-60
2020/12/03 08:24:28;;;;;;;31.60;14.98;;;4.60;99.90;;;;;;5041504;28;20092;-60
2020/12/03 08:26:57;;;;;;;26.65;13.23;;;4.60;99.90;;;;;;5042753;28;20029;-56
2020/12/03 08:29:36;;;;;;;25.83;13.98;;;4.70;99.90;;;;;;5047152;28;20029;-57
2020/12/03 08:32:02;;;;;;;29.08;14.13;;;4.60;99.90;;;;;;5049579;28;20029;-57
2020/12/03 08:34:32;;;;;;;23.38;13.10;;;4.60;99.90;;;;;;5049752;28;20035;-58
2020/12/03 08:36:58;;;;;;;26.70;13.38;;;4.60;99.90;;;;;;5048667;28;20073;-56
2020/12/03 08:39:24;;;;;;;28.25;14.52;;;4.70;99.90;;;;;;5049020;28;20025;-56
2020/12/03 08:41:51;;;;;;;24.38;13.07;;;4.60;99.90;;;;;;5049784;28;20036;-58
2020/12/03 08:44:17;;;;;;;25.00;13.18;;;4.60;99.90;;;;;;5049161;28;20052;-56
2020/12/03 08:46:42;;;;;;;25.00;13.20;;;4.60;99.90;;;;;;5049564;28;20466;-54
2020/12/03 08:49:26;;;;;;;26.55;14.20;;;4.60;99.90;;;;;;5049465;28;20057;-58
2020/12/03 08:51:55;;;;;;;27.33;14.88;;;4.60;99.90;;;;;;5049681;28;20038;-57
2020/12/03 08:54:30;;;;;;;26.52;13.13;;;4.50;99.90;;;;;;5049887;28;20368;-60
2020/12/03 08:57:02;;;;;;;28.30;13.75;;;4.60;99.90;;;;;;5045364;28;20065;-58
2020/12/03 08:59:33;;;;;;;24.33;14.57;;;4.60;99.90;;;;;;5039714;28;20032;-61
2020/12/03 09:02:10;;;;;;;28.00;13.13;;;4.70;99.90;;;;;;5041805;28;20527;-56
2020/12/03 09:04:38;;;;;;;28.42;14.18;;;4.70;99.90;;;;;;5048386;28;20029;-60
2020/12/03 09:07:09;;;;;;;27.60;13.50;;;4.70;99.90;;;;;;5049290;28;20100;-59
2020/12/03 09:09:37;;;;;;;26.35;13.70;;;4.70;99.90;;;;;;5048988;28;20411;-56
2020/12/03 09:12:03;;;;;;;34.33;15.63;;;4.60;99.90;;;;;;5048733;28;20147;-57
2020/12/03 09:14:34;;;;;;;24.50;13.27;;;4.70;99.90;;;;;;5045512;28;20047;-59
2020/12/03 09:17:05;;;;;;;28.58;14.00;;;4.70;99.90;;;;;;5049197;28;20037;-58
2020/12/03 09:19:31;;;;;;;27.23;14.13;;;4.70;99.90;;;;;;5049074;28;20028;-58
2020/12/03 09:21:58;;;;;;;28.60;13.93;;;4.70;99.90;;;;;;5048790;28;20025;-54
2020/12/03 09:24:25;;;;;;;25.15;13.65;;;4.80;99.90;;;;;;5048729;28;20047;-58
2020/12/03 09:26:52;;;;;;;26.98;14.05;;;4.80;99.90;;;;;;5041536;28;20026;-57
2020/12/03 09:29:19;;;;;;;27.95;13.95;;;4.80;99.90;;;;;;5046789;28;20052;-56
2020/12/03 09:31:46;;;;;;;26.23;14.02;;;4.80;99.90;;;;;;5048817;28;20086;-59
2020/12/03 09:34:14;;;;;;;30.50;14.23;;;4.90;99.90;;;;;;5047954;28;20034;-60
2020/12/03 09:36:40;;;;;;;27.27;14.60;;;4.90;99.90;;;;;;5047325;28;20025;-59
2020/12/03 09:39:06;;;;;;;25.25;13.52;;;4.90;99.90;;;;;;5048538;28;20021;-56
2020/12/03 09:41:33;;;;;;;30.67;15.50;;;5.00;99.90;;;;;;5047133;28;20048;-57
2020/12/03 09:44:03;;;;;;;30.75;16.05;;;5.00;99.90;;;;;;5048103;28;20013;-57
2020/12/03 09:46:34;;;;;;;29.05;15.35;;;5.10;99.90;;;;;;5047448;28;20025;-57
2020/12/03 09:49:00;;;;;;;33.13;16.05;;;5.10;99.90;;;;;;5048097;28;20112;-53
2020/12/03 09:51:26;;;;;;;31.08;15.68;;;5.10;99.90;;;;;;5048836;28;20107;-57
2020/12/03 09:53:52;;;;;;;26.83;14.15;;;5.10;99.90;;;;;;5048146;28;20033;-58
2020/12/03 09:56:21;;;;;;;26.23;13.23;;;5.10;99.90;;;;;;5046980;28;20029;-58
2020/12/03 09:58:56;;;;;;;29.85;14.18;;;5.20;99.90;;;;;;5047597;28;20390;-60
2020/12/03 10:01:43;;;;;;;29.17;13.30;;;5.20;99.90;;;;;;5048475;28;20021;-58
2020/12/03 10:04:32;;;;;;;28.92;14.55;;;5.20;99.90;;;;;;5047126;28;20612;-58
2020/12/03 10:07:31;;;;;;;27.00;13.80;;;5.30;99.90;;;;;;5047596;28;20028;-60
2020/12/03 10:10:07;;;;;;;23.33;13.10;;;5.40;99.90;;;;;;5047879;28;20032;-58
2020/12/03 10:13:06;;;;;;;27.88;13.77;;;5.50;99.90;;;;;;5047677;28;20094;-58
2020/12/03 10:16:02;;;;;;;25.17;12.55;;;5.50;99.90;;;;;;5047480;28;20093;-60
2020/12/03 10:18:43;;;;;;;29.23;14.98;;;5.50;99.90;;;;;;5047279;28;20037;-59
2020/12/03 10:21:08;;;;;;;26.13;13.48;;;5.60;99.90;;;;;;5047152;28;20031;-59
2020/12/03 10:23:42;;;;;;;32.28;14.57;;;5.60;99.90;;;;;;5046407;28;20025;-58
2020/12/03 10:26:18;;;;;;;27.33;13.85;;;5.70;99.90;;;;;;5051338;28;20116;-61
2020/12/03 10:28:53;;;;;;;22.75;12.10;;;5.70;99.90;;;;;;5051380;28;20029;-60
2020/12/03 10:31:21;;;;;;;31.83;13.82;;;5.70;99.90;;;;;;5052135;28;20025;-58
2020/12/03 10:33:49;;;;;;;45.67;14.02;;;5.80;99.90;;;;;;5051830;28;20028;-59
2020/12/03 10:36:29;;;;;;;29.80;13.48;;;5.70;99.90;;;;;;5050974;28;20395;-57
2020/12/03 10:38:58;;;;;;;28.35;12.43;;;5.70;99.90;;;;;;5052148;28;20037;-57
2020/12/03 10:41:31;;;;;;;24.25;12.65;;;5.70;99.90;;;;;;5052190;28;20028;-56
2020/12/03 10:44:02;;;;;;;28.35;12.85;;;5.70;99.90;;;;;;5051952;28;20096;-58
2020/12/03 10:46:31;;;;;;;21.50;11.77;;;5.80;99.90;;;;;;5051403;28;20033;-58
2020/12/03 10:48:59;;;;;;;25.92;12.40;;;5.80;99.90;;;;;;5051924;28;20040;-56
2020/12/03 10:51:25;;;;;;;30.15;12.75;;;5.80;99.90;;;;;;5052122;28;20102;-59
2020/12/03 10:53:51;;;;;;;21.98;11.27;;;5.80;99.90;;;;;;5052418;28;20475;-60
2020/12/03 10:56:26;;;;;;;21.73;12.45;;;5.80;99.90;;;;;;5051786;28;20519;-59
2020/12/03 10:59:19;;;;;;;21.35;11.73;;;5.80;99.90;;;;;;5051763;28;20029;-57
2020/12/03 11:01:50;;;;;;;25.58;12.10;;;5.80;99.90;;;;;;5051482;28;20047;-61
2020/12/03 11:04:17;;;;;;;28.42;12.60;;;5.80;99.90;;;;;;5049963;28;20051;-61
2020/12/03 11:06:43;;;;;;;22.92;11.85;;;5.70;99.90;;;;;;5050911;28;20036;-62
2020/12/03 11:09:19;;;;;;;22.98;12.05;;;5.70;99.90;;;;;;5050520;28;20033;-60
2020/12/03 11:11:47;;;;;;;22.60;11.05;;;5.70;99.90;;;;;;5051350;28;20107;-61
2020/12/03 11:14:14;;;;;;;23.63;12.05;;;5.70;99.90;;;;;;5051110;28;20121;-61
2020/12/03 11:16:48;;;;;;;23.25;11.45;;;5.80;99.90;;;;;;5050896;28;20047;-56
2020/12/03 11:19:16;;;;;;;25.13;12.07;;;5.80;99.90;;;;;;5050469;28;20040;-58
2020/12/03 11:21:51;;;;;;;19.67;10.93;;;5.80;99.90;;;;;;5050972;28;20037;-61
2020/12/03 11:24:33;;;;;;;20.23;10.52;;;5.70;99.90;;;;;;5050778;28;20365;-59
2020/12/03 11:27:01;;;;;;;23.98;10.82;;;5.70;99.90;;;;;;5050331;28;20016;-59
2020/12/03 11:29:27;;;;;;;22.13;11.23;;;5.70;99.90;;;;;;5050430;28;20039;-59
2020/12/03 11:31:56;;;;;;;29.45;12.50;;;5.70;99.90;;;;;;5050525;28;20475;-56
2020/12/03 11:34:35;;;;;;;22.73;11.75;;;5.80;99.90;;;;;;5049898;28;20065;-57
2020/12/03 11:37:00;;;;;;;24.65;12.45;;;5.80;99.90;;;;;;5050946;28;20090;-60
2020/12/03 11:39:28;;;;;;;21.50;11.20;;;5.90;99.90;;;;;;5049962;28;20033;-57
2020/12/03 11:42:14;;;;;;;22.67;10.57;;;5.90;99.90;;;;;;5050203;28;20077;-60
2020/12/03 11:49:54;;;;;;;21.25;9.75;;;5.70;99.90;;;;;;5049692;28;20037;-61
2020/12/03 11:52:19;;;;;;;18.45;9.82;;;5.80;99.90;;;;;;5050641;28;20082;-61
2020/12/03 11:54:46;;;;;;;18.80;8.75;;;5.80;99.90;;;;;;5049820;28;20021;-59
2020/12/03 11:57:15;;;;;;;19.95;9.50;;;5.90;99.90;;;;;;5050293;28;20048;-59
2020/12/03 11:59:40;;;;;;;17.55;9.88;;;5.90;99.90;;;;;;5048946;28;20052;-60
2020/12/03 12:02:08;;;;;;;16.13;8.75;;;6.00;99.90;;;;;;5050091;28;20039;-62
2020/12/03 12:04:45;;;;;;;19.63;8.90;;;6.10;99.90;;;;;;5050111;28;20052;-57
2020/12/03 12:07:20;;;;;;;20.35;8.65;;;6.10;99.90;;;;;;5049737;28;20335;-57
2020/12/03 12:09:51;;;;;;;22.70;9.43;;;6.20;99.90;;;;;;5050684;28;20116;-59
2020/12/03 12:12:19;;;;;;;17.42;8.75;;;6.20;99.90;;;;;;5049764;28;20044;-53
2020/12/03 12:14:45;;;;;;;17.75;8.63;;;6.30;99.90;;;;;;5048986;28;20071;-56
2020/12/03 12:17:11;;;;;;;17.75;8.45;;;6.30;99.90;;;;;;5050516;28;20045;-57
2020/12/03 12:19:37;;;;;;;16.90;8.43;;;6.40;99.90;;;;;;5049529;28;20029;-57
2020/12/03 12:22:05;;;;;;;15.77;8.68;;;6.40;99.90;;;;;;5049638;28;20100;-58
2020/12/03 12:24:31;;;;;;;19.17;9.02;;;6.40;99.90;;;;;;5049274;28;20037;-59
2020/12/03 12:26:56;;;;;;;19.92;8.93;;;6.40;99.90;;;;;;5048886;28;20400;-59
2020/12/03 12:29:22;;;;;;;15.70;8.80;;;6.30;99.90;;;;;;5046727;28;20033;-58
2020/12/03 12:31:48;;;;;;;18.77;10.38;;;6.30;99.90;;;;;;5049668;28;20171;-57
2020/12/03 12:34:13;;;;;;;20.20;8.63;;;6.30;99.90;;;;;;5072008;23;20048;-60
2020/12/03 12:36:39;;;;;;;15.88;8.27;;;6.30;99.90;;;;;;5049664;28;20028;-61
2020/12/03 12:39:05;;;;;;;15.00;8.50;;;6.40;99.90;;;;;;5050382;28;20029;-61
2020/12/03 12:41:30;;;;;;;16.10;9.15;;;6.40;99.90;;;;;;5050418;28;20044;-61
2020/12/03 12:43:56;;;;;;;13.60;8.57;;;6.50;99.90;;;;;;5050462;28;20029;-61
2020/12/03 12:46:23;;;;;;;14.63;8.55;;;6.50;99.90;;;;;;5061263;28;20032;-61
2020/12/03 12:48:49;;;;;;;16.20;7.55;;;6.60;99.90;;;;;;5070520;28;20556;-61
2020/12/03 12:51:15;;;;;;;15.57;8.38;;;6.60;99.90;;;;;;5060928;28;20103;-60
2020/12/03 12:53:41;;;;;;;13.70;7.60;;;6.60;99.90;;;;;;5042533;28;20104;-61
2020/12/03 12:56:09;;;;;;;15.65;8.13;;;6.70;99.90;;;;;;5049654;28;20033;-61
2020/12/03 12:58:35;;;;;;;12.57;7.20;;;6.70;99.90;;;;;;5050110;28;20056;-59
2020/12/03 13:01:00;;;;;;;14.38;6.47;;;6.70;99.90;;;;;;5050145;28;20475;-59
2020/12/03 13:03:26;;;;;;;35.22;9.23;;;6.70;99.90;;;;;;5057354;28;20052;-61
2020/12/03 13:05:53;;;;;;;11.57;5.80;;;6.70;99.90;;;;;;5051776;28;20491;-61
2020/12/03 13:08:19;;;;;;;13.63;7.68;;;6.60;99.90;;;;;;5045808;28;20024;-60